sensor_id;sensor_type;location;lat;lon;timestamp;P1;durP1;ratioP1;P2;durP2;ratioP2
8652;SDS011;4364;52.426;9.424;2023-07-13T00:00:09;3.87;;;3.40;;
8652;SDS011;4364;52.426;9.424;2023-07-13T00:02:40;4.20;;;3.20;;
8652;SDS011;4364;52.426;9.424;2023-07-13T00:05:06;3.97;;;3.10;;
8652;SDS011;4364;52.426;9.424;2023-07-13T00:07:34;3.77;;;3.33;;
8652;SDS011;4364;52.426;9.424;2023-07-13T00:10:02;6.83;;;3.47;;
8652;SDS011;4364;52.426;9.424;2023-07-13T00:12:30;6.63;;;3.30;;
8652;SDS011;4364;52.426;9.424;2023-07-13T00:15:06;4.67;;;3.17;;
8652;SDS011;4364;52.426;9.424;2023-07-13T00:17:38;7.03;;;3.70;;
8652;SDS011;4364;52.426;9.424;2023-07-13T00:20:05;6.67;;;3.47;;
8652;SDS011;4364;52.426;9.424;2023-07-13T00:22:33;5.43;;;3.83;;
8652;SDS011;4364;52.426;9.424;2023-07-13T00:25:00;4.07;;;3.23;;
8652;SDS011;4364;52.426;9.424;2023-07-13T00:27:27;3.63;;;3.03;;
8652;SDS011;4364;52.426;9.424;2023-07-13T00:29:56;5.53;;;3.53;;
8652;SDS011;4364;52.426;9.424;2023-07-13T00:32:22;4.63;;;3.60;;
8652;SDS011;4364;52.426;9.424;2023-07-13T00:34:48;4.03;;;3.37;;
8652;SDS011;4364;52.426;9.424;2023-07-13T00:37:17;3.63;;;3.10;;
8652;SDS011;4364;52.426;9.424;2023-07-13T00:39:44;4.80;;;3.43;;
8652;SDS011;4364;52.426;9.424;2023-07-13T00:42:11;4.67;;;3.20;;
8652;SDS011;4364;52.426;9.424;2023-07-13T00:44:38;5.43;;;3.70;;
8652;SDS011;4364;52.426;9.424;2023-07-13T00:47:06;4.80;;;3.27;;
8652;SDS011;4364;52.426;9.424;2023-07-13T00:49:33;5.93;;;3.63;;
8652;SDS011;4364;52.426;9.424;2023-07-13T00:52:06;6.27;;;3.50;;
8652;SDS011;4364;52.426;9.424;2023-07-13T00:54:39;4.63;;;3.63;;
8652;SDS011;4364;52.426;9.424;2023-07-13T00:57:11;3.90;;;3.50;;
8652;SDS011;4364;52.426;9.424;2023-07-13T00:59:41;5.20;;;3.60;;
8652;SDS011;4364;52.426;9.424;2023-07-13T01:02:11;5.90;;;4.07;;
8652;SDS011;4364;52.426;9.424;2023-07-13T01:04:38;4.73;;;3.47;;
8652;SDS011;4364;52.426;9.424;2023-07-13T01:07:06;5.10;;;3.57;;
8652;SDS011;4364;52.426;9.424;2023-07-13T01:09:33;6.03;;;3.80;;
8652;SDS011;4364;52.426;9.424;2023-07-13T01:12:00;4.23;;;3.70;;
8652;SDS011;4364;52.426;9.424;2023-07-13T01:14:28;4.70;;;3.73;;
8652;SDS011;4364;52.426;9.424;2023-07-13T01:16:55;4.60;;;3.60;;
8652;SDS011;4364;52.426;9.424;2023-07-13T01:19:56;7.00;;;3.97;;
8652;SDS011;4364;52.426;9.424;2023-07-13T01:22:16;5.57;;;3.87;;
8652;SDS011;4364;52.426;9.424;2023-07-13T01:24:45;5.63;;;4.00;;
8652;SDS011;4364;52.426;9.424;2023-07-13T01:27:15;4.60;;;3.60;;
8652;SDS011;4364;52.426;9.424;2023-07-13T01:29:44;9.17;;;4.03;;
8652;SDS011;4364;52.426;9.424;2023-07-13T01:32:16;4.00;;;3.60;;
8652;SDS011;4364;52.426;9.424;2023-07-13T01:34:52;7.73;;;4.53;;
8652;SDS011;4364;52.426;9.424;2023-07-13T01:37:23;5.67;;;4.20;;
8652;SDS011;4364;52.426;9.424;2023-07-13T01:39:51;6.30;;;4.60;;
8652;SDS011;4364;52.426;9.424;2023-07-13T01:42:18;5.80;;;4.67;;
8652;SDS011;4364;52.426;9.424;2023-07-13T01:44:47;6.80;;;4.73;;
8652;SDS011;4364;52.426;9.424;2023-07-13T01:47:13;6.20;;;4.03;;
8652;SDS011;4364;52.426;9.424;2023-07-13T01:49:40;6.73;;;4.50;;
8652;SDS011;4364;52.426;9.424;2023-07-13T01:52:07;4.97;;;4.37;;
8652;SDS011;4364;52.426;9.424;2023-07-13T01:54:34;4.57;;;3.90;;
8652;SDS011;4364;52.426;9.424;2023-07-13T01:57:01;6.10;;;3.97;;
8652;SDS011;4364;52.426;9.424;2023-07-13T01:59:27;7.40;;;4.23;;
8652;SDS011;4364;52.426;9.424;2023-07-13T02:01:54;5.13;;;3.80;;
8652;SDS011;4364;52.426;9.424;2023-07-13T02:04:20;5.50;;;4.23;;
8652;SDS011;4364;52.426;9.424;2023-07-13T02:06:48;6.40;;;4.37;;
8652;SDS011;4364;52.426;9.424;2023-07-13T02:09:14;6.17;;;4.40;;
8652;SDS011;4364;52.426;9.424;2023-07-13T02:11:41;6.33;;;4.00;;
8652;SDS011;4364;52.426;9.424;2023-07-13T02:14:08;6.10;;;3.90;;
8652;SDS011;4364;52.426;9.424;2023-07-13T02:16:34;4.77;;;3.83;;
8652;SDS011;4364;52.426;9.424;2023-07-13T02:19:02;5.43;;;3.83;;
8652;SDS011;4364;52.426;9.424;2023-07-13T02:21:28;5.30;;;3.90;;
8652;SDS011;4364;52.426;9.424;2023-07-13T02:23:55;7.07;;;4.33;;
8652;SDS011;4364;52.426;9.424;2023-07-13T02:26:21;6.10;;;3.50;;
8652;SDS011;4364;52.426;9.424;2023-07-13T02:28:48;6.07;;;3.70;;
8652;SDS011;4364;52.426;9.424;2023-07-13T02:31:15;5.00;;;3.93;;
8652;SDS011;4364;52.426;9.424;2023-07-13T02:33:42;5.10;;;4.10;;
8652;SDS011;4364;52.426;9.424;2023-07-13T02:36:10;7.53;;;4.27;;
8652;SDS011;4364;52.426;9.424;2023-07-13T02:38:38;4.80;;;3.93;;
8652;SDS011;4364;52.426;9.424;2023-07-13T02:41:06;6.00;;;3.87;;
8652;SDS011;4364;52.426;9.424;2023-07-13T02:43:35;5.87;;;4.03;;
8652;SDS011;4364;52.426;9.424;2023-07-13T02:46:03;5.17;;;3.97;;
8652;SDS011;4364;52.426;9.424;2023-07-13T02:48:35;4.50;;;3.80;;
8652;SDS011;4364;52.426;9.424;2023-07-13T02:51:04;7.60;;;4.30;;
8652;SDS011;4364;52.426;9.424;2023-07-13T02:53:31;5.97;;;3.93;;
8652;SDS011;4364;52.426;9.424;2023-07-13T02:55:58;6.67;;;4.03;;
8652;SDS011;4364;52.426;9.424;2023-07-13T02:58:24;7.90;;;4.20;;
8652;SDS011;4364;52.426;9.424;2023-07-13T03:00:51;6.13;;;4.33;;
8652;SDS011;4364;52.426;9.424;2023-07-13T03:03:18;4.17;;;3.60;;
8652;SDS011;4364;52.426;9.424;2023-07-13T03:05:45;6.00;;;3.60;;
8652;SDS011;4364;52.426;9.424;2023-07-13T03:08:18;5.60;;;3.70;;
8652;SDS011;4364;52.426;9.424;2023-07-13T03:10:46;5.57;;;3.63;;
8652;SDS011;4364;52.426;9.424;2023-07-13T03:13:13;5.67;;;4.00;;
8652;SDS011;4364;52.426;9.424;2023-07-13T03:15:40;5.80;;;4.00;;
8652;SDS011;4364;52.426;9.424;2023-07-13T03:18:07;6.63;;;3.70;;
8652;SDS011;4364;52.426;9.424;2023-07-13T03:20:34;8.47;;;3.57;;
8652;SDS011;4364;52.426;9.424;2023-07-13T03:23:00;5.27;;;3.40;;
8652;SDS011;4364;52.426;9.424;2023-07-13T03:25:27;5.97;;;3.60;;
8652;SDS011;4364;52.426;9.424;2023-07-13T03:27:54;7.67;;;3.57;;
8652;SDS011;4364;52.426;9.424;2023-07-13T03:30:21;6.17;;;3.27;;
8652;SDS011;4364;52.426;9.424;2023-07-13T03:32:47;5.17;;;3.37;;
8652;SDS011;4364;52.426;9.424;2023-07-13T03:35:14;6.70;;;3.80;;
8652;SDS011;4364;52.426;9.424;2023-07-13T03:37:40;5.27;;;3.23;;
8652;SDS011;4364;52.426;9.424;2023-07-13T03:40:12;4.63;;;3.13;;
8652;SDS011;4364;52.426;9.424;2023-07-13T03:42:42;4.73;;;3.43;;
8652;SDS011;4364;52.426;9.424;2023-07-13T03:45:08;5.33;;;3.00;;
8652;SDS011;4364;52.426;9.424;2023-07-13T03:47:35;4.50;;;2.90;;
8652;SDS011;4364;52.426;9.424;2023-07-13T03:50:04;6.80;;;2.93;;
8652;SDS011;4364;52.426;9.424;2023-07-13T03:52:31;4.97;;;3.00;;
8652;SDS011;4364;52.426;9.424;2023-07-13T03:54:58;6.63;;;3.07;;
8652;SDS011;4364;52.426;9.424;2023-07-13T03:57:24;5.20;;;3.30;;
8652;SDS011;4364;52.426;9.424;2023-07-13T03:59:51;6.20;;;3.10;;
8652;SDS011;4364;52.426;9.424;2023-07-13T04:02:18;6.77;;;3.07;;
8652;SDS011;4364;52.426;9.424;2023-07-13T04:04:45;8.00;;;3.23;;
8652;SDS011;4364;52.426;9.424;2023-07-13T04:07:12;8.13;;;3.20;;
8652;SDS011;4364;52.426;9.424;2023-07-13T04:09:39;5.70;;;3.03;;
8652;SDS011;4364;52.426;9.424;2023-07-13T04:12:06;7.50;;;3.20;;
8652;SDS011;4364;52.426;9.424;2023-07-13T04:14:33;5.30;;;2.80;;
8652;SDS011;4364;52.426;9.424;2023-07-13T04:16:59;7.20;;;3.20;;
8652;SDS011;4364;52.426;9.424;2023-07-13T04:19:26;6.93;;;3.30;;
8652;SDS011;4364;52.426;9.424;2023-07-13T04:21:53;5.60;;;3.00;;
8652;SDS011;4364;52.426;9.424;2023-07-13T04:24:19;9.63;;;3.67;;
8652;SDS011;4364;52.426;9.424;2023-07-13T04:26:46;6.80;;;3.03;;
8652;SDS011;4364;52.426;9.424;2023-07-13T04:29:12;6.23;;;3.10;;
8652;SDS011;4364;52.426;9.424;2023-07-13T04:31:39;7.13;;;3.27;;
8652;SDS011;4364;52.426;9.424;2023-07-13T04:34:06;8.87;;;3.37;;
8652;SDS011;4364;52.426;9.424;2023-07-13T04:36:33;6.83;;;3.13;;
8652;SDS011;4364;52.426;9.424;2023-07-13T04:38:59;7.33;;;3.30;;
8652;SDS011;4364;52.426;9.424;2023-07-13T04:41:26;7.00;;;3.40;;
8652;SDS011;4364;52.426;9.424;2023-07-13T04:43:52;8.23;;;3.10;;
8652;SDS011;4364;52.426;9.424;2023-07-13T04:46:22;10.43;;;3.50;;
8652;SDS011;4364;52.426;9.424;2023-07-13T04:48:49;9.80;;;3.70;;
8652;SDS011;4364;52.426;9.424;2023-07-13T04:51:17;8.87;;;3.10;;
8652;SDS011;4364;52.426;9.424;2023-07-13T04:53:43;7.93;;;3.13;;
8652;SDS011;4364;52.426;9.424;2023-07-13T04:56:10;7.57;;;2.73;;
8652;SDS011;4364;52.426;9.424;2023-07-13T04:58:37;8.10;;;3.30;;
8652;SDS011;4364;52.426;9.424;2023-07-13T05:01:04;7.10;;;3.13;;
8652;SDS011;4364;52.426;9.424;2023-07-13T05:03:32;6.00;;;3.30;;
8652;SDS011;4364;52.426;9.424;2023-07-13T05:06:03;5.87;;;3.30;;
8652;SDS011;4364;52.426;9.424;2023-07-13T05:08:32;6.17;;;2.90;;
8652;SDS011;4364;52.426;9.424;2023-07-13T05:11:00;11.83;;;3.50;;
8652;SDS011;4364;52.426;9.424;2023-07-13T05:13:27;9.87;;;3.77;;
8652;SDS011;4364;52.426;9.424;2023-07-13T05:15:57;10.57;;;3.50;;
8652;SDS011;4364;52.426;9.424;2023-07-13T05:18:25;7.97;;;3.30;;
8652;SDS011;4364;52.426;9.424;2023-07-13T05:20:59;9.17;;;3.53;;
8652;SDS011;4364;52.426;9.424;2023-07-13T05:23:33;5.57;;;3.00;;
8652;SDS011;4364;52.426;9.424;2023-07-13T05:26:04;6.40;;;2.83;;
8652;SDS011;4364;52.426;9.424;2023-07-13T05:28:35;9.97;;;3.67;;
8652;SDS011;4364;52.426;9.424;2023-07-13T05:31:02;7.03;;;3.13;;
8652;SDS011;4364;52.426;9.424;2023-07-13T05:33:29;8.17;;;3.30;;
8652;SDS011;4364;52.426;9.424;2023-07-13T05:35:56;12.83;;;3.40;;
8652;SDS011;4364;52.426;9.424;2023-07-13T05:38:23;6.90;;;3.50;;
8652;SDS011;4364;52.426;9.424;2023-07-13T05:40:49;8.03;;;3.13;;
8652;SDS011;4364;52.426;9.424;2023-07-13T05:43:16;8.73;;;3.40;;
8652;SDS011;4364;52.426;9.424;2023-07-13T05:45:42;6.63;;;3.50;;
8652;SDS011;4364;52.426;9.424;2023-07-13T05:48:09;10.70;;;3.40;;
8652;SDS011;4364;52.426;9.424;2023-07-13T05:50:36;12.17;;;3.80;;
8652;SDS011;4364;52.426;9.424;2023-07-13T05:53:03;9.10;;;3.50;;
8652;SDS011;4364;52.426;9.424;2023-07-13T05:55:30;6.47;;;2.97;;
8652;SDS011;4364;52.426;9.424;2023-07-13T05:57:57;7.00;;;3.13;;
8652;SDS011;4364;52.426;9.424;2023-07-13T06:00:26;6.57;;;3.57;;
8652;SDS011;4364;52.426;9.424;2023-07-13T06:02:52;8.60;;;3.10;;
8652;SDS011;4364;52.426;9.424;2023-07-13T06:05:19;7.63;;;3.30;;
8652;SDS011;4364;52.426;9.424;2023-07-13T06:07:46;8.97;;;3.77;;
8652;SDS011;4364;52.426;9.424;2023-07-13T06:10:12;7.07;;;3.60;;
8652;SDS011;4364;52.426;9.424;2023-07-13T06:12:39;9.13;;;3.90;;
8652;SDS011;4364;52.426;9.424;2023-07-13T06:15:06;9.50;;;3.63;;
8652;SDS011;4364;52.426;9.424;2023-07-13T06:17:33;8.17;;;3.57;;
8652;SDS011;4364;52.426;9.424;2023-07-13T06:20:00;9.17;;;3.70;;
8652;SDS011;4364;52.426;9.424;2023-07-13T06:22:27;13.27;;;3.83;;
8652;SDS011;4364;52.426;9.424;2023-07-13T06:24:53;14.93;;;3.90;;
8652;SDS011;4364;52.426;9.424;2023-07-13T06:27:20;6.90;;;3.40;;
8652;SDS011;4364;52.426;9.424;2023-07-13T06:29:46;7.20;;;3.00;;
8652;SDS011;4364;52.426;9.424;2023-07-13T06:32:13;8.33;;;3.47;;
8652;SDS011;4364;52.426;9.424;2023-07-13T06:34:39;8.80;;;3.33;;
8652;SDS011;4364;52.426;9.424;2023-07-13T06:37:08;11.73;;;3.33;;
8652;SDS011;4364;52.426;9.424;2023-07-13T06:39:36;7.37;;;3.00;;
8652;SDS011;4364;52.426;9.424;2023-07-13T06:42:03;6.97;;;3.00;;
8652;SDS011;4364;52.426;9.424;2023-07-13T06:44:30;9.73;;;3.30;;
8652;SDS011;4364;52.426;9.424;2023-07-13T06:46:57;10.23;;;3.33;;
8652;SDS011;4364;52.426;9.424;2023-07-13T06:49:23;6.70;;;3.17;;
8652;SDS011;4364;52.426;9.424;2023-07-13T06:51:50;8.17;;;3.07;;
8652;SDS011;4364;52.426;9.424;2023-07-13T06:54:16;6.33;;;2.77;;
8652;SDS011;4364;52.426;9.424;2023-07-13T06:56:43;9.97;;;2.80;;
8652;SDS011;4364;52.426;9.424;2023-07-13T06:59:09;10.87;;;3.30;;
8652;SDS011;4364;52.426;9.424;2023-07-13T07:01:36;6.80;;;2.67;;
8652;SDS011;4364;52.426;9.424;2023-07-13T07:04:06;6.40;;;2.60;;
8652;SDS011;4364;52.426;9.424;2023-07-13T07:06:33;7.73;;;2.70;;
8652;SDS011;4364;52.426;9.424;2023-07-13T07:09:00;8.77;;;2.80;;
8652;SDS011;4364;52.426;9.424;2023-07-13T07:11:27;7.87;;;2.67;;
8652;SDS011;4364;52.426;9.424;2023-07-13T07:13:53;8.40;;;3.00;;
8652;SDS011;4364;52.426;9.424;2023-07-13T07:16:20;7.97;;;2.67;;
8652;SDS011;4364;52.426;9.424;2023-07-13T07:18:48;7.80;;;2.40;;
8652;SDS011;4364;52.426;9.424;2023-07-13T07:21:14;10.03;;;3.10;;
8652;SDS011;4364;52.426;9.424;2023-07-13T07:23:42;8.03;;;2.90;;
8652;SDS011;4364;52.426;9.424;2023-07-13T07:26:09;8.10;;;2.97;;
8652;SDS011;4364;52.426;9.424;2023-07-13T07:28:36;7.10;;;2.97;;
8652;SDS011;4364;52.426;9.424;2023-07-13T07:31:12;7.13;;;2.80;;
8652;SDS011;4364;52.426;9.424;2023-07-13T07:33:41;7.43;;;2.80;;
8652;SDS011;4364;52.426;9.424;2023-07-13T07:36:08;8.00;;;3.10;;
8652;SDS011;4364;52.426;9.424;2023-07-13T07:38:38;6.30;;;2.80;;
8652;SDS011;4364;52.426;9.424;2023-07-13T07:41:04;7.10;;;2.90;;
8652;SDS011;4364;52.426;9.424;2023-07-13T07:43:34;5.67;;;2.50;;
8652;SDS011;4364;52.426;9.424;2023-07-13T07:46:01;4.93;;;2.70;;
8652;SDS011;4364;52.426;9.424;2023-07-13T07:48:29;9.13;;;2.87;;
8652;SDS011;4364;52.426;9.424;2023-07-13T07:50:55;4.37;;;2.53;;
8652;SDS011;4364;52.426;9.424;2023-07-13T07:53:22;7.43;;;2.33;;
8652;SDS011;4364;52.426;9.424;2023-07-13T07:55:49;10.00;;;3.10;;
8652;SDS011;4364;52.426;9.424;2023-07-13T07:58:18;7.07;;;2.97;;
8652;SDS011;4364;52.426;9.424;2023-07-13T08:00:48;8.77;;;3.50;;
8652;SDS011;4364;52.426;9.424;2023-07-13T08:03:17;7.60;;;2.90;;
8652;SDS011;4364;52.426;9.424;2023-07-13T08:05:46;8.50;;;2.97;;
8652;SDS011;4364;52.426;9.424;2023-07-13T08:08:34;10.93;;;3.20;;
8652;SDS011;4364;52.426;9.424;2023-07-13T08:11:05;6.47;;;2.90;;
8652;SDS011;4364;52.426;9.424;2023-07-13T08:13:36;9.67;;;3.23;;
8652;SDS011;4364;52.426;9.424;2023-07-13T08:16:04;7.90;;;2.63;;
8652;SDS011;4364;52.426;9.424;2023-07-13T08:18:32;8.10;;;3.40;;
8652;SDS011;4364;52.426;9.424;2023-07-13T08:21:02;10.07;;;3.23;;
8652;SDS011;4364;52.426;9.424;2023-07-13T08:23:33;9.87;;;2.97;;
8652;SDS011;4364;52.426;9.424;2023-07-13T08:26:00;10.73;;;2.80;;
8652;SDS011;4364;52.426;9.424;2023-07-13T08:28:28;10.63;;;3.40;;
8652;SDS011;4364;52.426;9.424;2023-07-13T08:30:54;6.63;;;2.93;;
8652;SDS011;4364;52.426;9.424;2023-07-13T08:33:21;9.20;;;3.13;;
8652;SDS011;4364;52.426;9.424;2023-07-13T08:35:50;11.17;;;3.10;;
8652;SDS011;4364;52.426;9.424;2023-07-13T08:38:17;6.90;;;2.80;;
8652;SDS011;4364;52.426;9.424;2023-07-13T08:40:48;8.47;;;2.97;;
8652;SDS011;4364;52.426;9.424;2023-07-13T08:43:18;6.90;;;3.17;;
8652;SDS011;4364;52.426;9.424;2023-07-13T08:45:51;10.00;;;4.03;;
8652;SDS011;4364;52.426;9.424;2023-07-13T08:48:27;7.20;;;2.97;;
8652;SDS011;4364;52.426;9.424;2023-07-13T08:53:55;8.37;;;2.90;;
8652;SDS011;4364;52.426;9.424;2023-07-13T08:56:27;8.90;;;3.10;;
8652;SDS011;4364;52.426;9.424;2023-07-13T08:58:57;7.47;;;2.70;;
8652;SDS011;4364;52.426;9.424;2023-07-13T09:01:34;9.03;;;3.17;;
8652;SDS011;4364;52.426;9.424;2023-07-13T09:04:16;5.40;;;2.60;;
8652;SDS011;4364;52.426;9.424;2023-07-13T09:09:38;8.43;;;3.03;;
8652;SDS011;4364;52.426;9.424;2023-07-13T09:15:01;7.63;;;3.00;;
8652;SDS011;4364;52.426;9.424;2023-07-13T09:17:35;6.60;;;2.67;;
8652;SDS011;4364;52.426;9.424;2023-07-13T09:20:10;10.20;;;3.00;;
8652;SDS011;4364;52.426;9.424;2023-07-13T09:22:48;9.57;;;2.97;;
8652;SDS011;4364;52.426;9.424;2023-07-13T09:27:53;5.80;;;2.47;;
8652;SDS011;4364;52.426;9.424;2023-07-13T09:30:32;8.10;;;2.87;;
8652;SDS011;4364;52.426;9.424;2023-07-13T09:33:02;5.97;;;2.70;;
8652;SDS011;4364;52.426;9.424;2023-07-13T09:35:30;5.53;;;2.60;;
8652;SDS011;4364;52.426;9.424;2023-07-13T09:37:58;8.20;;;3.17;;
8652;SDS011;4364;52.426;9.424;2023-07-13T09:43:17;5.27;;;2.60;;
8652;SDS011;4364;52.426;9.424;2023-07-13T09:45:47;6.67;;;2.70;;
8652;SDS011;4364;52.426;9.424;2023-07-13T09:48:15;5.17;;;2.50;;
8652;SDS011;4364;52.426;9.424;2023-07-13T09:50:42;6.53;;;2.60;;
8652;SDS011;4364;52.426;9.424;2023-07-13T09:53:14;5.47;;;2.60;;
8652;SDS011;4364;52.426;9.424;2023-07-13T09:55:43;6.97;;;2.93;;
8652;SDS011;4364;52.426;9.424;2023-07-13T09:58:20;5.93;;;2.80;;
8652;SDS011;4364;52.426;9.424;2023-07-13T10:01:01;5.80;;;2.47;;
8652;SDS011;4364;52.426;9.424;2023-07-13T10:03:33;8.33;;;2.97;;
8652;SDS011;4364;52.426;9.424;2023-07-13T10:06:18;5.67;;;2.77;;
8652;SDS011;4364;52.426;9.424;2023-07-13T10:08:49;7.50;;;2.60;;
8652;SDS011;4364;52.426;9.424;2023-07-13T10:11:22;6.67;;;2.40;;
8652;SDS011;4364;52.426;9.424;2023-07-13T10:13:56;5.83;;;2.47;;
8652;SDS011;4364;52.426;9.424;2023-07-13T10:16:28;4.80;;;2.30;;
8652;SDS011;4364;52.426;9.424;2023-07-13T10:19:14;6.30;;;2.60;;
8652;SDS011;4364;52.426;9.424;2023-07-13T10:21:50;5.87;;;2.67;;
8652;SDS011;4364;52.426;9.424;2023-07-13T10:24:22;7.83;;;2.83;;
8652;SDS011;4364;52.426;9.424;2023-07-13T10:27:01;4.97;;;2.40;;
8652;SDS011;4364;52.426;9.424;2023-07-13T10:29:36;6.07;;;2.50;;
8652;SDS011;4364;52.426;9.424;2023-07-13T10:32:10;4.37;;;2.50;;
8652;SDS011;4364;52.426;9.424;2023-07-13T10:34:39;5.00;;;2.20;;
8652;SDS011;4364;52.426;9.424;2023-07-13T10:37:20;5.57;;;2.60;;
8652;SDS011;4364;52.426;9.424;2023-07-13T10:39:50;5.13;;;2.10;;
8652;SDS011;4364;52.426;9.424;2023-07-13T10:42:24;4.90;;;2.63;;
8652;SDS011;4364;52.426;9.424;2023-07-13T10:44:52;4.60;;;2.60;;
8652;SDS011;4364;52.426;9.424;2023-07-13T10:47:18;4.93;;;2.50;;
8652;SDS011;4364;52.426;9.424;2023-07-13T10:49:45;5.33;;;2.30;;
8652;SDS011;4364;52.426;9.424;2023-07-13T10:55:29;5.57;;;2.30;;
8652;SDS011;4364;52.426;9.424;2023-07-13T10:58:01;3.13;;;2.43;;
8652;SDS011;4364;52.426;9.424;2023-07-13T11:00:32;3.57;;;2.10;;
8652;SDS011;4364;52.426;9.424;2023-07-13T11:03:13;4.70;;;2.37;;
8652;SDS011;4364;52.426;9.424;2023-07-13T11:05:42;3.60;;;2.20;;
8652;SDS011;4364;52.426;9.424;2023-07-13T11:18:50;4.67;;;2.37;;
8652;SDS011;4364;52.426;9.424;2023-07-13T11:31:41;3.53;;;2.40;;
8652;SDS011;4364;52.426;9.424;2023-07-13T11:34:12;3.77;;;2.30;;
8652;SDS011;4364;52.426;9.424;2023-07-13T11:36:44;4.67;;;2.30;;
8652;SDS011;4364;52.426;9.424;2023-07-13T11:39:21;4.27;;;1.97;;
8652;SDS011;4364;52.426;9.424;2023-07-13T11:41:58;3.53;;;2.00;;
8652;SDS011;4364;52.426;9.424;2023-07-13T11:44:29;3.87;;;2.40;;
8652;SDS011;4364;52.426;9.424;2023-07-13T11:46:57;7.03;;;2.90;;
8652;SDS011;4364;52.426;9.424;2023-07-13T11:49:42;7.23;;;2.63;;
8652;SDS011;4364;52.426;9.424;2023-07-13T11:52:21;3.87;;;2.17;;
8652;SDS011;4364;52.426;9.424;2023-07-13T11:54:55;5.57;;;2.10;;
8652;SDS011;4364;52.426;9.424;2023-07-13T11:57:24;4.63;;;2.80;;
8652;SDS011;4364;52.426;9.424;2023-07-13T11:59:54;4.10;;;2.40;;
8652;SDS011;4364;52.426;9.424;2023-07-13T12:02:28;5.57;;;2.37;;
8652;SDS011;4364;52.426;9.424;2023-07-13T12:04:57;3.50;;;2.27;;
8652;SDS011;4364;52.426;9.424;2023-07-13T12:07:28;3.27;;;2.30;;
8652;SDS011;4364;52.426;9.424;2023-07-13T12:10:00;8.40;;;2.40;;
8652;SDS011;4364;52.426;9.424;2023-07-13T12:12:51;4.23;;;2.00;;
8652;SDS011;4364;52.426;9.424;2023-07-13T12:15:35;6.20;;;2.37;;
8652;SDS011;4364;52.426;9.424;2023-07-13T12:18:12;4.60;;;2.60;;
8652;SDS011;4364;52.426;9.424;2023-07-13T12:20:41;6.07;;;2.40;;
8652;SDS011;4364;52.426;9.424;2023-07-13T12:23:15;4.50;;;2.63;;
8652;SDS011;4364;52.426;9.424;2023-07-13T12:25:50;4.90;;;2.63;;
8652;SDS011;4364;52.426;9.424;2023-07-13T12:28:21;4.50;;;2.23;;
8652;SDS011;4364;52.426;9.424;2023-07-13T12:30:49;3.40;;;2.30;;
8652;SDS011;4364;52.426;9.424;2023-07-13T12:33:16;3.43;;;2.07;;
8652;SDS011;4364;52.426;9.424;2023-07-13T12:35:45;3.83;;;2.40;;
8652;SDS011;4364;52.426;9.424;2023-07-13T12:38:13;5.47;;;2.80;;
8652;SDS011;4364;52.426;9.424;2023-07-13T12:40:41;4.50;;;2.70;;
8652;SDS011;4364;52.426;9.424;2023-07-13T12:43:11;5.40;;;2.97;;
8652;SDS011;4364;52.426;9.424;2023-07-13T12:45:43;11.50;;;3.43;;
8652;SDS011;4364;52.426;9.424;2023-07-13T12:48:24;5.60;;;2.40;;
8652;SDS011;4364;52.426;9.424;2023-07-13T12:51:11;4.70;;;2.40;;
8652;SDS011;4364;52.426;9.424;2023-07-13T12:53:41;3.27;;;2.30;;
8652;SDS011;4364;52.426;9.424;2023-07-13T12:56:16;3.23;;;2.17;;
8652;SDS011;4364;52.426;9.424;2023-07-13T12:58:47;3.80;;;2.50;;
8652;SDS011;4364;52.426;9.424;2023-07-13T13:01:21;4.27;;;2.30;;
8652;SDS011;4364;52.426;9.424;2023-07-13T13:03:53;3.73;;;2.30;;
8652;SDS011;4364;52.426;9.424;2023-07-13T13:06:23;3.77;;;2.50;;
8652;SDS011;4364;52.426;9.424;2023-07-13T13:08:53;4.17;;;2.30;;
8652;SDS011;4364;52.426;9.424;2023-07-13T13:11:25;4.60;;;2.00;;
8652;SDS011;4364;52.426;9.424;2023-07-13T13:13:54;4.03;;;1.90;;
8652;SDS011;4364;52.426;9.424;2023-07-13T13:18:51;3.00;;;1.80;;
8652;SDS011;4364;52.426;9.424;2023-07-13T13:21:19;4.23;;;2.20;;
8652;SDS011;4364;52.426;9.424;2023-07-13T13:23:46;4.23;;;1.90;;
8652;SDS011;4364;52.426;9.424;2023-07-13T13:26:14;3.10;;;1.73;;
8652;SDS011;4364;52.426;9.424;2023-07-13T13:28:44;2.90;;;1.70;;
8652;SDS011;4364;52.426;9.424;2023-07-13T13:31:13;3.90;;;1.80;;
8652;SDS011;4364;52.426;9.424;2023-07-13T13:33:42;3.30;;;1.80;;
8652;SDS011;4364;52.426;9.424;2023-07-13T13:38:45;3.13;;;1.70;;
8652;SDS011;4364;52.426;9.424;2023-07-13T13:41:13;1.87;;;1.57;;
8652;SDS011;4364;52.426;9.424;2023-07-13T13:43:41;3.27;;;2.07;;
8652;SDS011;4364;52.426;9.424;2023-07-13T13:46:30;2.17;;;1.80;;
8652;SDS011;4364;52.426;9.424;2023-07-13T13:48:56;4.13;;;2.20;;
8652;SDS011;4364;52.426;9.424;2023-07-13T13:51:23;3.53;;;2.10;;
8652;SDS011;4364;52.426;9.424;2023-07-13T13:53:50;4.43;;;1.80;;
8652;SDS011;4364;52.426;9.424;2023-07-13T13:56:18;3.47;;;1.70;;
8652;SDS011;4364;52.426;9.424;2023-07-13T13:58:45;3.23;;;1.70;;
8652;SDS011;4364;52.426;9.424;2023-07-13T14:01:19;2.63;;;1.77;;
8652;SDS011;4364;52.426;9.424;2023-07-13T14:03:48;3.30;;;1.97;;
8652;SDS011;4364;52.426;9.424;2023-07-13T14:06:17;2.83;;;1.67;;
8652;SDS011;4364;52.426;9.424;2023-07-13T14:08:44;2.97;;;1.90;;
8652;SDS011;4364;52.426;9.424;2023-07-13T14:11:11;3.70;;;1.87;;
8652;SDS011;4364;52.426;9.424;2023-07-13T14:13:43;2.60;;;1.90;;
8652;SDS011;4364;52.426;9.424;2023-07-13T14:16:15;2.37;;;2.03;;
8652;SDS011;4364;52.426;9.424;2023-07-13T14:18:44;3.10;;;2.20;;
8652;SDS011;4364;52.426;9.424;2023-07-13T14:21:15;5.27;;;2.60;;
8652;SDS011;4364;52.426;9.424;2023-07-13T14:23:47;5.50;;;2.70;;
8652;SDS011;4364;52.426;9.424;2023-07-13T14:26:16;4.37;;;2.70;;
8652;SDS011;4364;52.426;9.424;2023-07-13T14:28:45;4.43;;;2.80;;
8652;SDS011;4364;52.426;9.424;2023-07-13T14:31:15;4.37;;;2.93;;
8652;SDS011;4364;52.426;9.424;2023-07-13T14:33:43;4.37;;;2.90;;
8652;SDS011;4364;52.426;9.424;2023-07-13T14:36:19;3.97;;;2.90;;
8652;SDS011;4364;52.426;9.424;2023-07-13T14:38:51;4.47;;;3.27;;
8652;SDS011;4364;52.426;9.424;2023-07-13T14:41:19;6.23;;;3.17;;
8652;SDS011;4364;52.426;9.424;2023-07-13T14:43:46;4.90;;;2.30;;
8652;SDS011;4364;52.426;9.424;2023-07-13T14:48:50;3.90;;;3.10;;
8652;SDS011;4364;52.426;9.424;2023-07-13T14:51:16;3.60;;;2.63;;
8652;SDS011;4364;52.426;9.424;2023-07-13T14:53:43;5.60;;;2.97;;
8652;SDS011;4364;52.426;9.424;2023-07-13T14:56:10;3.37;;;2.80;;
8652;SDS011;4364;52.426;9.424;2023-07-13T14:58:38;4.37;;;3.60;;
8652;SDS011;4364;52.426;9.424;2023-07-13T15:01:11;5.23;;;3.33;;
8652;SDS011;4364;52.426;9.424;2023-07-13T15:03:41;3.87;;;3.10;;
8652;SDS011;4364;52.426;9.424;2023-07-13T15:06:11;4.83;;;2.90;;
8652;SDS011;4364;52.426;9.424;2023-07-13T15:08:39;3.63;;;3.20;;
8652;SDS011;4364;52.426;9.424;2023-07-13T15:11:10;5.73;;;3.10;;
8652;SDS011;4364;52.426;9.424;2023-07-13T15:13:41;3.07;;;2.70;;
8652;SDS011;4364;52.426;9.424;2023-07-13T15:16:13;3.63;;;2.97;;
8652;SDS011;4364;52.426;9.424;2023-07-13T15:18:43;3.23;;;2.60;;
8652;SDS011;4364;52.426;9.424;2023-07-13T15:21:19;3.93;;;2.40;;
8652;SDS011;4364;52.426;9.424;2023-07-13T15:23:47;4.67;;;2.80;;
8652;SDS011;4364;52.426;9.424;2023-07-13T15:26:15;2.87;;;2.57;;
8652;SDS011;4364;52.426;9.424;2023-07-13T15:28:42;4.80;;;2.70;;
8652;SDS011;4364;52.426;9.424;2023-07-13T15:31:18;3.13;;;2.70;;
8652;SDS011;4364;52.426;9.424;2023-07-13T15:33:47;3.27;;;2.60;;
8652;SDS011;4364;52.426;9.424;2023-07-13T15:36:18;3.93;;;2.80;;
8652;SDS011;4364;52.426;9.424;2023-07-13T15:38:46;3.93;;;2.87;;
8652;SDS011;4364;52.426;9.424;2023-07-13T15:41:22;3.13;;;2.40;;
8652;SDS011;4364;52.426;9.424;2023-07-13T15:43:51;4.07;;;3.20;;
8652;SDS011;4364;52.426;9.424;2023-07-13T15:46:20;3.60;;;2.70;;
8652;SDS011;4364;52.426;9.424;2023-07-13T15:48:49;3.30;;;2.70;;
8652;SDS011;4364;52.426;9.424;2023-07-13T15:51:21;4.93;;;3.10;;
8652;SDS011;4364;52.426;9.424;2023-07-13T15:53:52;4.53;;;3.23;;
8652;SDS011;4364;52.426;9.424;2023-07-13T15:56:25;4.07;;;3.10;;
8652;SDS011;4364;52.426;9.424;2023-07-13T15:58:53;5.00;;;3.20;;
8652;SDS011;4364;52.426;9.424;2023-07-13T16:01:20;3.93;;;3.30;;
8652;SDS011;4364;52.426;9.424;2023-07-13T16:06:40;6.77;;;3.73;;
8652;SDS011;4364;52.426;9.424;2023-07-13T16:09:09;5.20;;;3.90;;
8652;SDS011;4364;52.426;9.424;2023-07-13T16:11:43;5.73;;;3.30;;
8652;SDS011;4364;52.426;9.424;2023-07-13T16:14:11;7.17;;;4.03;;
8652;SDS011;4364;52.426;9.424;2023-07-13T16:16:40;5.50;;;3.57;;